Time;durP1;ratioP1;P1;durP2;ratioP2;P2;SDS_P1;SDS_P2;PMS_P1;PMS_P2;Temp;Humidity;BMP_temperature;BMP_pressure;BME280_temperature;BME280_humidity;BME280_pressure;Samples;Min_cycle;Max_cycle;Signal;HPM_P1;HPM_P2
2022/04/18 00:01:45;;;;;;;5.80;2.53;;;10.80;93.70;;;;;;5042438;27;20053;-71
2022/04/18 00:04:11;;;;;;;5.55;2.90;;;10.90;94.00;;;;;;5038602;28;20042;-71
2022/04/18 00:06:36;;;;;;;3.42;2.30;;;10.90;93.70;;;;;;5042892;27;20468;-71
2022/04/18 00:09:03;;;;;;;4.45;2.25;;;10.90;93.60;;;;;;5038667;28;20609;-71
2022/04/18 00:11:29;;;;;;;4.28;2.65;;;10.90;93.50;;;;;;5035882;28;20034;-71
2022/04/18 00:13:54;;;;;;;3.67;2.33;;;10.90;94.00;;;;;;5036120;28;20119;-71
2022/04/18 00:16:20;;;;;;;5.95;2.15;;;10.80;94.20;;;;;;5039749;28;20058;-71
2022/04/18 00:18:46;;;;;;;2.70;2.35;;;10.80;94.00;;;;;;5035735;27;20505;-71
2022/04/18 00:21:11;;;;;;;4.68;2.90;;;10.70;94.20;;;;;;5041233;28;20086;-71
2022/04/18 00:23:37;;;;;;;5.35;2.67;;;10.70;93.70;;;;;;5038559;27;20121;-71
2022/04/18 00:26:03;;;;;;;3.97;2.45;;;10.70;93.70;;;;;;5039820;28;20033;-71
2022/04/18 00:28:29;;;;;;;3.53;2.33;;;10.60;93.60;;;;;;5035811;27;20030;-71
2022/04/18 00:30:54;;;;;;;3.75;2.47;;;10.60;93.20;;;;;;5041941;28;20537;-70
2022/04/18 00:33:20;;;;;;;3.95;2.75;;;10.50;93.10;;;;;;5036210;28;20029;-71
2022/04/18 00:35:46;;;;;;;3.13;2.40;;;10.50;93.10;;;;;;5040844;28;20087;-71
2022/04/18 00:38:11;;;;;;;5.47;2.75;;;10.50;92.90;;;;;;5038660;28;20075;-71
2022/04/18 00:40:37;;;;;;;4.40;2.47;;;10.40;92.60;;;;;;5036899;28;20040;-71
2022/04/18 00:43:04;;;;;;;3.47;2.65;;;10.40;93.30;;;;;;5034874;27;20041;-71
2022/04/18 00:45:30;;;;;;;3.78;2.30;;;10.50;92.70;;;;;;5041681;28;20029;-71
2022/04/18 00:47:56;;;;;;;3.03;2.42;;;10.40;92.80;;;;;;5037940;27;20033;-71
2022/04/18 00:50:23;;;;;;;3.25;2.53;;;10.40;93.70;;;;;;5040315;28;20021;-71
2022/04/18 00:52:51;;;;;;;3.13;2.38;;;10.40;94.30;;;;;;5038721;28;20116;-71
2022/04/18 00:55:18;;;;;;;3.03;2.60;;;10.30;93.40;;;;;;5033807;28;20061;-71
2022/04/18 00:57:45;;;;;;;6.20;2.47;;;10.40;93.90;;;;;;5035356;28;20044;-71
2022/04/18 01:00:11;;;;;;;2.90;2.30;;;10.40;93.60;;;;;;5041971;27;20029;-71
2022/04/18 01:02:37;;;;;;;4.28;2.50;;;10.30;94.10;;;;;;5042836;28;20090;-71
2022/04/18 01:05:03;;;;;;;4.65;2.72;;;10.20;93.90;;;;;;5041071;28;20408;-70
2022/04/18 01:07:30;;;;;;;3.88;2.38;;;10.00;93.70;;;;;;5039278;28;20423;-71
2022/04/18 01:09:55;;;;;;;3.67;2.40;;;9.90;93.40;;;;;;5044062;28;20036;-71
2022/04/18 01:12:21;;;;;;;3.42;2.80;;;9.90;93.40;;;;;;5037345;28;20389;-70
2022/04/18 01:14:48;;;;;;;6.20;2.60;;;9.80;94.10;;;;;;5043414;28;20400;-71
2022/04/18 01:17:17;;;;;;;3.13;2.55;;;9.80;93.70;;;;;;5041699;28;20057;-71
2022/04/18 01:19:43;;;;;;;4.30;2.70;;;9.70;93.90;;;;;;5047574;28;20089;-71
2022/04/18 01:22:09;;;;;;;5.95;2.55;;;9.70;93.60;;;;;;5040347;27;20040;-71
2022/04/18 01:30:06;;;;;;;3.53;2.80;;;9.70;93.70;;;;;;5043570;28;20075;-71
2022/04/18 01:32:31;;;;;;;4.00;2.65;;;9.70;94.00;;;;;;5039744;27;20053;-71
2022/04/18 01:34:57;;;;;;;3.88;2.83;;;9.60;93.40;;;;;;5040349;28;20029;-70
2022/04/18 01:37:23;;;;;;;3.72;2.38;;;9.60;93.90;;;;;;5040281;28;20065;-71
2022/04/18 01:39:49;;;;;;;5.63;2.80;;;9.60;93.90;;;;;;5041639;28;20095;-70
2022/04/18 01:42:15;;;;;;;5.85;2.80;;;9.50;94.00;;;;;;5034834;28;20122;-71
2022/04/18 01:44:41;;;;;;;3.88;2.70;;;9.50;93.60;;;;;;5041963;28;20033;-70
2022/04/18 01:47:07;;;;;;;4.82;2.85;;;9.30;94.00;;;;;;5044348;28;20067;-70
2022/04/18 01:49:33;;;;;;;2.88;2.63;;;9.20;93.50;;;;;;5040961;28;20393;-71
2022/04/18 01:51:59;;;;;;;4.20;2.65;;;9.20;93.40;;;;;;5042878;28;20029;-71
2022/04/18 01:54:24;;;;;;;3.33;3.03;;;9.20;93.80;;;;;;5043504;27;20034;-70
2022/04/18 01:56:50;;;;;;;3.83;3.38;;;9.10;93.60;;;;;;5040217;28;20098;-70
2022/04/18 01:59:16;;;;;;;3.30;2.90;;;9.10;94.00;;;;;;5042931;28;20364;-71
2022/04/18 02:01:41;;;;;;;3.85;2.90;;;9.00;94.20;;;;;;5037536;28;20097;-71
2022/04/18 02:04:07;;;;;;;4.38;3.08;;;9.00;94.30;;;;;;5040660;28;20041;-70
2022/04/18 02:06:34;;;;;;;3.80;3.35;;;9.00;93.90;;;;;;5048669;28;20013;-71
2022/04/18 02:09:00;;;;;;;4.15;2.80;;;8.90;94.40;;;;;;5040518;28;20040;-70
2022/04/18 02:11:26;;;;;;;4.70;3.40;;;9.00;94.50;;;;;;5035724;28;20035;-70
2022/04/18 02:13:52;;;;;;;5.13;3.40;;;8.90;94.20;;;;;;5042108;28;20030;-70
2022/04/18 02:16:21;;;;;;;5.50;3.75;;;9.00;94.10;;;;;;5038558;28;20032;-70
2022/04/18 02:18:47;;;;;;;8.15;3.10;;;8.90;94.00;;;;;;5034391;27;20137;-70
2022/04/18 02:21:13;;;;;;;4.13;3.05;;;8.90;95.00;;;;;;5043047;28;20441;-70
2022/04/18 02:23:39;;;;;;;4.85;3.30;;;8.90;95.00;;;;;;5040564;27;20136;-69
2022/04/18 02:26:05;;;;;;;7.75;2.92;;;8.90;95.10;;;;;;5036836;28;20469;-70
2022/04/18 02:28:31;;;;;;;3.50;3.20;;;8.90;95.30;;;;;;5041183;27;20034;-71
2022/04/18 02:30:57;;;;;;;5.10;3.33;;;8.90;95.30;;;;;;5039554;28;20042;-71
2022/04/18 02:33:23;;;;;;;3.15;2.85;;;8.90;95.10;;;;;;5042669;28;20074;-71
2022/04/18 02:35:49;;;;;;;3.50;3.20;;;8.80;95.30;;;;;;5042017;27;20108;-70
2022/04/18 02:38:15;;;;;;;6.30;4.20;;;8.80;95.30;;;;;;5041540;28;20068;-71
2022/04/18 02:40:41;;;;;;;6.32;3.28;;;8.80;94.60;;;;;;5036688;27;20029;-71
2022/04/18 02:43:06;;;;;;;4.85;2.90;;;8.70;94.80;;;;;;5041953;28;20037;-71
2022/04/18 02:45:32;;;;;;;10.63;3.92;;;8.70;95.10;;;;;;5040356;28;20366;-70
2022/04/18 02:47:58;;;;;;;6.72;3.30;;;8.60;95.40;;;;;;5036140;28;20029;-70
2022/04/18 02:50:25;;;;;;;8.32;3.55;;;8.60;95.10;;;;;;5044778;28;20029;-70
2022/04/18 02:52:51;;;;;;;8.88;4.05;;;8.60;94.80;;;;;;5039185;28;20021;-70
2022/04/18 02:55:16;;;;;;;5.38;3.63;;;8.50;94.90;;;;;;5039619;28;20073;-71
2022/04/18 02:57:42;;;;;;;4.25;3.40;;;8.50;94.30;;;;;;5036824;28;20022;-70
2022/04/18 03:00:09;;;;;;;4.88;3.22;;;8.50;94.30;;;;;;5037738;28;20033;-70
2022/04/18 03:02:36;;;;;;;4.53;3.83;;;8.50;95.00;;;;;;5037866;28;20030;-70
2022/04/18 03:05:04;;;;;;;6.88;3.80;;;8.50;95.60;;;;;;5041527;28;20069;-70
2022/04/18 03:07:30;;;;;;;7.07;3.88;;;8.40;95.60;;;;;;5037930;27;20035;-70
2022/04/18 03:09:56;;;;;;;5.55;3.65;;;8.40;95.10;;;;;;5042269;28;20021;-70
2022/04/18 03:12:22;;;;;;;4.93;3.92;;;8.40;95.50;;;;;;5040038;28;20104;-70
2022/04/18 03:14:49;;;;;;;5.68;3.33;;;8.40;95.30;;;;;;5037508;28;20049;-70
2022/04/18 03:17:15;;;;;;;4.47;3.53;;;8.30;95.20;;;;;;5039092;27;20100;-70
2022/04/18 03:19:41;;;;;;;8.15;3.95;;;8.30;95.50;;;;;;5039907;28;20037;-70
2022/04/18 03:22:07;;;;;;;11.38;4.28;;;8.30;95.50;;;;;;5038485;28;20078;-70
2022/04/18 03:24:33;;;;;;;7.25;3.33;;;8.30;95.80;;;;;;5041422;27;20043;-70
2022/04/18 03:27:03;;;;;;;6.97;3.30;;;8.30;95.80;;;;;;5037427;28;20031;-70
2022/04/18 03:29:29;;;;;;;6.13;3.70;;;8.20;95.90;;;;;;5035804;28;20025;-70
2022/04/18 03:31:56;;;;;;;5.32;3.20;;;8.20;95.90;;;;;;5035037;27;20028;-70
2022/04/18 03:34:23;;;;;;;6.15;3.60;;;8.20;95.70;;;;;;5041109;28;20537;-70
2022/04/18 03:39:51;;;;;;;8.63;4.28;;;8.10;96.50;;;;;;5040229;27;20067;-70
2022/04/18 03:42:19;;;;;;;6.53;3.70;;;8.10;96.80;;;;;;5038542;28;20059;-70
2022/04/18 03:44:47;;;;;;;6.20;4.45;;;8.10;97.40;;;;;;5035023;27;20033;-70
2022/04/18 03:47:15;;;;;;;6.82;3.65;;;8.10;97.10;;;;;;5041787;28;20033;-70
2022/04/18 03:49:41;;;;;;;7.47;4.60;;;8.00;97.60;;;;;;5044749;28;20396;-70
2022/04/18 03:52:08;;;;;;;5.75;4.07;;;8.00;97.20;;;;;;5039248;27;20066;-70
2022/04/18 03:54:39;;;;;;;5.28;4.00;;;8.00;97.20;;;;;;5041460;28;20072;-70
2022/04/18 03:57:06;;;;;;;6.17;3.90;;;7.90;96.70;;;;;;5037986;28;20057;-70
2022/04/18 03:59:32;;;;;;;4.82;4.10;;;7.90;97.40;;;;;;5036263;28;20024;-70
2022/04/18 04:01:58;;;;;;;7.38;3.88;;;7.90;96.80;;;;;;5039401;28;20033;-71
2022/04/18 04:04:24;;;;;;;5.45;3.83;;;8.00;97.20;;;;;;5035436;28;20043;-70
2022/04/18 04:06:50;;;;;;;4.80;3.50;;;7.90;97.30;;;;;;5038216;28;20070;-71
2022/04/18 04:09:15;;;;;;;5.38;3.50;;;7.80;97.80;;;;;;5038625;28;20029;-70
2022/04/18 04:11:41;;;;;;;5.28;4.03;;;7.80;98.10;;;;;;5037546;27;20107;-71
2022/04/18 04:14:07;;;;;;;5.63;4.10;;;7.80;97.70;;;;;;5036543;28;20358;-71
2022/04/18 04:16:32;;;;;;;5.03;3.90;;;7.70;97.00;;;;;;5042788;27;20030;-71
2022/04/18 04:18:58;;;;;;;5.07;3.83;;;7.70;97.70;;;;;;5038023;28;20043;-71
2022/04/18 04:21:24;;;;;;;5.10;3.72;;;7.70;97.60;;;;;;5034676;28;20377;-71
2022/04/18 04:23:49;;;;;;;4.20;3.67;;;7.70;98.10;;;;;;5036324;28;20041;-70
2022/04/18 04:26:15;;;;;;;6.43;4.32;;;7.70;98.00;;;;;;5034991;28;20091;-71
2022/04/18 04:28:40;;;;;;;4.75;4.18;;;7.60;98.40;;;;;;5045235;28;20358;-70
2022/04/18 04:31:06;;;;;;;4.53;4.10;;;7.60;97.90;;;;;;5038241;28;20465;-70
2022/04/18 04:33:32;;;;;;;5.93;4.20;;;7.60;98.00;;;;;;5037592;28;20032;-70
2022/04/18 04:35:59;;;;;;;6.47;4.10;;;7.50;98.30;;;;;;5038165;27;20029;-70
2022/04/18 04:38:25;;;;;;;7.95;4.18;;;7.40;97.80;;;;;;5037826;28;20102;-70
2022/04/18 04:40:53;;;;;;;5.45;4.18;;;7.50;98.70;;;;;;5040836;27;20090;-70
2022/04/18 04:43:19;;;;;;;5.32;4.10;;;7.40;98.70;;;;;;5037900;28;20034;-70
2022/04/18 04:45:45;;;;;;;4.72;4.28;;;7.40;97.90;;;;;;5040975;27;20021;-70
2022/04/18 04:48:11;;;;;;;4.47;3.97;;;7.40;97.30;;;;;;5036864;28;20033;-70
2022/04/18 04:50:39;;;;;;;6.78;3.58;;;7.40;97.30;;;;;;5039463;28;20032;-70
2022/04/18 04:53:05;;;;;;;5.20;3.85;;;7.40;98.30;;;;;;5037315;27;20029;-70
2022/04/18 04:55:31;;;;;;;4.60;4.20;;;7.40;98.40;;;;;;5040247;28;20408;-70
2022/04/18 04:57:56;;;;;;;4.80;4.28;;;7.40;98.10;;;;;;5041235;28;20029;-70
2022/04/18 05:00:22;;;;;;;4.95;4.28;;;7.40;98.50;;;;;;5041996;27;20667;-70
2022/04/18 05:02:47;;;;;;;5.93;3.85;;;7.40;97.90;;;;;;5035270;28;20066;-70
2022/04/18 05:05:14;;;;;;;7.45;4.38;;;7.40;98.40;;;;;;5034570;28;20029;-70
2022/04/18 05:07:39;;;;;;;5.75;3.90;;;7.40;98.30;;;;;;5039377;28;20025;-70
2022/04/18 05:10:06;;;;;;;7.38;4.07;;;7.40;98.20;;;;;;5041434;28;20385;-70
2022/04/18 05:12:32;;;;;;;10.10;4.40;;;7.40;98.60;;;;;;5039853;27;20018;-70
2022/04/18 05:15:03;;;;;;;5.05;4.20;;;7.40;98.20;;;;;;5045490;28;20029;-70
2022/04/18 05:17:29;;;;;;;7.43;4.25;;;7.40;98.00;;;;;;5037977;27;20089;-70
2022/04/18 05:19:55;;;;;;;4.40;3.70;;;7.40;98.20;;;;;;5050437;28;20023;-70
2022/04/18 05:22:20;;;;;;;5.25;3.95;;;7.20;99.40;;;;;;5034595;27;20396;-69
2022/04/18 05:24:46;;;;;;;7.57;4.03;;;7.20;99.70;;;;;;5039471;28;20073;-69
2022/04/18 05:27:15;;;;;;;4.20;3.55;;;7.20;98.60;;;;;;5038026;27;20037;-69
2022/04/18 05:29:43;;;;;;;5.05;3.70;;;7.30;98.90;;;;;;5039174;28;20033;-69
2022/04/18 05:32:09;;;;;;;7.25;3.92;;;7.30;99.80;;;;;;5034989;28;20028;-69
2022/04/18 05:34:35;;;;;;;5.43;4.28;;;7.40;98.90;;;;;;5037893;28;20030;-69
2022/04/18 05:37:01;;;;;;;5.63;3.85;;;7.40;99.30;;;;;;5040008;27;20477;-69
2022/04/18 05:39:27;;;;;;;5.60;3.83;;;7.50;99.80;;;;;;5038067;28;20036;-69
2022/04/18 05:41:52;;;;;;;7.57;3.65;;;7.50;99.10;;;;;;5034249;27;20025;-70
2022/04/18 05:44:18;;;;;;;8.40;3.80;;;7.40;99.10;;;;;;5041411;28;20041;-69
2022/04/18 05:46:44;;;;;;;6.47;3.85;;;7.40;99.60;;;;;;5036799;27;20036;-69
2022/04/18 05:49:09;;;;;;;6.85;3.03;;;7.30;99.90;;;;;;5041866;28;20021;-69
2022/04/18 05:51:37;;;;;;;8.20;3.90;;;7.40;99.90;;;;;;5048672;28;20065;-69
2022/04/18 05:54:03;;;;;;;10.82;4.53;;;7.40;99.50;;;;;;5045241;28;20493;-69
2022/04/18 05:56:29;;;;;;;6.53;3.45;;;7.50;99.90;;;;;;5043968;28;20104;-69
2022/04/18 05:58:55;;;;;;;5.05;3.50;;;7.60;98.60;;;;;;5039858;27;20021;-70
2022/04/18 06:01:21;;;;;;;7.28;4.00;;;7.60;98.60;;;;;;5044655;28;20070;-69
2022/04/18 06:03:47;;;;;;;7.05;3.80;;;7.70;98.10;;;;;;5041321;28;20029;-69
2022/04/18 06:06:13;;;;;;;6.72;3.90;;;7.80;98.50;;;;;;5044044;28;20021;-70
2022/04/18 06:08:39;;;;;;;7.50;3.70;;;7.90;99.20;;;;;;5040727;28;20500;-69
2022/04/18 06:11:05;;;;;;;6.68;3.28;;;8.00;99.40;;;;;;5040247;28;20037;-70
2022/04/18 06:13:30;;;;;;;5.75;3.25;;;8.00;98.00;;;;;;5037420;27;20021;-70
2022/04/18 06:15:56;;;;;;;5.03;3.22;;;8.10;98.20;;;;;;5038368;28;20036;-70
2022/04/18 06:18:22;;;;;;;4.65;3.60;;;8.10;98.80;;;;;;5038515;27;20053;-69
2022/04/18 06:20:47;;;;;;;8.38;3.65;;;8.10;98.10;;;;;;5040801;28;20035;-70
2022/04/18 06:23:16;;;;;;;8.95;3.53;;;8.20;98.00;;;;;;5040136;27;20062;-70
2022/04/18 06:25:43;;;;;;;6.65;3.22;;;8.40;97.30;;;;;;5042447;28;20024;-70
2022/04/18 06:28:09;;;;;;;9.30;3.10;;;8.40;98.10;;;;;;5048663;28;20029;-70
2022/04/18 06:30:35;;;;;;;4.13;3.20;;;8.40;97.70;;;;;;5041700;28;20065;-70
2022/04/18 06:33:00;;;;;;;6.07;3.15;;;8.50;98.30;;;;;;5049378;28;20468;-70
2022/04/18 06:35:26;;;;;;;3.40;2.75;;;8.60;97.50;;;;;;5040258;28;20469;-70
2022/04/18 06:37:51;;;;;;;6.72;3.10;;;8.70;97.40;;;;;;5041188;28;20029;-70
2022/04/18 06:40:17;;;;;;;5.90;3.20;;;9.00;97.00;;;;;;5037038;28;20026;-70
2022/04/18 06:42:43;;;;;;;5.35;3.22;;;9.00;96.80;;;;;;5041728;28;20420;-70
2022/04/18 06:45:09;;;;;;;5.53;3.58;;;9.10;96.90;;;;;;5046430;28;20392;-70
2022/04/18 06:47:34;;;;;;;5.30;3.25;;;9.20;96.90;;;;;;5041450;27;20106;-70
2022/04/18 06:50:00;;;;;;;6.25;3.10;;;9.30;96.80;;;;;;5038059;28;20390;-70
2022/04/18 06:52:26;;;;;;;5.15;3.33;;;9.40;98.80;;;;;;5035422;27;20452;-70
2022/04/18 06:54:51;;;;;;;6.20;2.90;;;9.50;96.70;;;;;;5038964;28;20096;-70
2022/04/18 06:57:17;;;;;;;4.45;3.08;;;9.70;96.40;;;;;;5034034;28;20032;-70
2022/04/18 06:59:43;;;;;;;6.68;3.72;;;9.80;96.10;;;;;;5038907;28;20362;-70
2022/04/18 07:02:09;;;;;;;4.10;3.00;;;9.90;96.10;;;;;;5038220;27;20029;-69
2022/04/18 07:04:34;;;;;;;3.53;2.85;;;10.10;96.00;;;;;;5037909;28;20078;-69
2022/04/18 07:07:00;;;;;;;4.90;3.38;;;10.40;95.70;;;;;;5038287;27;20310;-69
2022/04/18 07:09:26;;;;;;;5.88;3.03;;;10.50;95.00;;;;;;5039180;28;20093;-70
2022/04/18 07:11:52;;;;;;;4.25;2.75;;;10.60;94.50;;;;;;5039646;28;20029;-70
2022/04/18 07:14:18;;;;;;;4.05;3.03;;;10.70;94.70;;;;;;5038868;27;20381;-70
2022/04/18 07:16:44;;;;;;;4.40;2.95;;;10.90;94.70;;;;;;5042988;28;20026;-71
2022/04/18 07:19:10;;;;;;;6.00;2.90;;;11.10;94.60;;;;;;5039431;27;20028;-71
2022/04/18 07:21:36;;;;;;;4.20;2.65;;;11.20;94.30;;;;;;5040630;28;20381;-71
2022/04/18 07:24:03;;;;;;;4.28;2.83;;;11.30;94.40;;;;;;5036912;27;20120;-70
2022/04/18 07:26:28;;;;;;;7.32;2.80;;;11.40;94.30;;;;;;5043361;28;20024;-71
2022/04/18 07:28:54;;;;;;;12.57;3.00;;;11.50;94.40;;;;;;5037598;28;20037;-71
2022/04/18 07:31:19;;;;;;;6.90;3.58;;;11.40;94.10;;;;;;5036863;27;20492;-70
2022/04/18 07:33:45;;;;;;;3.25;2.78;;;11.70;93.80;;;;;;5042987;28;20031;-71
2022/04/18 07:36:11;;;;;;;7.57;2.70;;;11.80;92.60;;;;;;5035629;28;20065;-71
2022/04/18 07:38:49;;;;;;;3.55;2.83;;;11.90;93.00;;;;;;5046357;28;20029;-71
2022/04/18 07:41:22;;;;;;;5.55;2.47;;;12.10;92.40;;;;;;5038237;28;20037;-70
2022/04/18 07:43:49;;;;;;;4.25;2.58;;;12.20;92.40;;;;;;5040382;28;20048;-71
2022/04/18 07:46:15;;;;;;;3.85;2.70;;;12.40;92.40;;;;;;5036605;27;20028;-71
2022/04/18 07:48:42;;;;;;;4.10;2.67;;;12.60;91.90;;;;;;5040834;28;20040;-71
2022/04/18 07:53:51;;;;;;;5.53;2.50;;;13.10;91.10;;;;;;5037925;28;20037;-71
2022/04/18 07:56:17;;;;;;;2.70;2.22;;;13.30;91.00;;;;;;5042694;28;20020;-71
2022/04/18 07:58:43;;;;;;;3.47;2.72;;;13.50;88.10;;;;;;5038275;28;20457;-71
2022/04/18 08:01:08;;;;;;;4.20;2.50;;;13.70;90.90;;;;;;5043485;28;20491;-72
2022/04/18 08:03:35;;;;;;;4.72;2.70;;;13.90;88.20;;;;;;5037106;27;20041;-71
2022/04/18 08:06:01;;;;;;;4.43;2.90;;;14.10;89.80;;;;;;5035417;28;20469;-72
2022/04/18 08:08:27;;;;;;;3.38;2.80;;;14.20;90.60;;;;;;5037449;27;20039;-72
2022/04/18 08:10:52;;;;;;;3.55;2.70;;;14.40;88.60;;;;;;5036846;28;20033;-72
2022/04/18 08:13:18;;;;;;;4.35;2.55;;;14.60;90.00;;;;;;5040076;28;20037;-70
2022/04/18 08:15:44;;;;;;;2.95;2.63;;;14.80;90.10;;;;;;5036139;28;20457;-73
2022/04/18 08:18:10;;;;;;;5.40;3.00;;;15.10;89.80;;;;;;5040771;28;20036;-73
2022/04/18 08:20:35;;;;;;;4.50;2.50;;;15.00;88.80;;;;;;5042358;28;20028;-71
2022/04/18 08:23:01;;;;;;;3.63;2.47;;;15.20;88.20;;;;;;5034160;27;20108;-71
2022/04/18 08:25:27;;;;;;;5.72;3.25;;;15.30;85.10;;;;;;5038649;28;20025;-73
2022/04/18 08:27:52;;;;;;;3.20;2.72;;;15.50;87.50;;;;;;5041531;28;20062;-72
2022/04/18 08:30:18;;;;;;;3.13;2.78;;;15.60;87.80;;;;;;5038564;28;20494;-71
2022/04/18 08:32:44;;;;;;;3.20;2.90;;;15.60;87.30;;;;;;5037683;28;20094;-72
2022/04/18 08:35:10;;;;;;;3.80;2.67;;;15.70;83.90;;;;;;5039532;28;20086;-73
2022/04/18 08:37:36;;;;;;;3.75;2.40;;;15.80;84.60;;;;;;5034908;27;20026;-72
2022/04/18 08:40:10;;;;;;;4.20;3.00;;;15.80;82.30;;;;;;5035777;28;20503;-74
2022/04/18 08:42:38;;;;;;;4.53;3.45;;;15.90;84.00;;;;;;5046282;28;20037;-72
2022/04/18 08:45:07;;;;;;;3.92;3.17;;;15.90;83.70;;;;;;5035959;27;20021;-72
2022/04/18 08:53:04;;;;;;;5.22;2.90;;;16.30;81.90;;;;;;5043756;28;20097;-72
2022/04/18 08:55:31;;;;;;;5.40;3.40;;;16.30;82.20;;;;;;5039525;28;20036;-72
2022/04/18 08:57:56;;;;;;;4.38;3.20;;;16.30;81.80;;;;;;5033778;27;20037;-72
2022/04/18 09:00:22;;;;;;;4.68;3.10;;;16.40;79.20;;;;;;5039935;28;20030;-72
2022/04/18 09:02:48;;;;;;;3.95;3.17;;;16.60;80.10;;;;;;5033140;27;20022;-72
2022/04/18 09:05:14;;;;;;;5.53;3.42;;;16.80;82.60;;;;;;5039853;28;20087;-72
2022/04/18 09:07:58;;;;;;;5.00;3.50;;;16.90;79.20;;;;;;5035723;27;20052;-72
2022/04/18 09:10:23;;;;;;;4.25;3.13;;;17.00;80.90;;;;;;5035928;28;20036;-72
2022/04/18 09:12:50;;;;;;;5.85;4.10;;;17.20;81.50;;;;;;5034226;28;20033;-72
2022/04/18 09:15:49;;;;;;;6.20;3.67;;;17.40;78.30;;;;;;5035863;27;20493;-72
2022/04/18 09:18:17;;;;;;;3.95;2.97;;;17.50;79.40;;;;;;5036475;28;20060;-71
2022/04/18 09:20:43;;;;;;;5.28;3.40;;;17.70;78.10;;;;;;5043261;28;20131;-72
2022/04/18 09:23:30;;;;;;;7.40;3.42;;;17.70;79.10;;;;;;5036792;28;20390;-72
2022/04/18 09:26:00;;;;;;;5.90;3.65;;;17.60;76.80;;;;;;5040593;27;20115;-72
2022/04/18 09:28:29;;;;;;;3.30;3.00;;;17.80;76.30;;;;;;5044910;28;20025;-71
2022/04/18 09:31:17;;;;;;;4.57;3.90;;;17.90;76.80;;;;;;5038510;27;20470;-73
2022/04/18 09:33:52;;;;;;;7.03;3.58;;;18.00;77.40;;;;;;5042674;28;20029;-73
2022/04/18 09:36:20;;;;;;;3.65;3.30;;;18.10;77.30;;;;;;5039403;28;20124;-72
2022/04/18 09:38:47;;;;;;;6.07;4.30;;;18.10;77.20;;;;;;5038441;28;20021;-72
2022/04/18 09:41:22;;;;;;;4.55;3.90;;;18.20;78.70;;;;;;5041678;28;20040;-73
2022/04/18 09:43:49;;;;;;;4.85;3.17;;;18.10;73.90;;;;;;5035821;28;20029;-73
2022/04/18 09:46:16;;;;;;;5.60;2.97;;;18.20;76.00;;;;;;5043293;27;20025;-72
2022/04/18 09:48:43;;;;;;;8.35;3.53;;;18.40;75.10;;;;;;5042323;28;20493;-72
2022/04/18 09:51:14;;;;;;;6.20;2.83;;;18.50;77.10;;;;;;5047589;28;20115;-72
2022/04/18 09:53:43;;;;;;;3.75;2.78;;;18.50;73.60;;;;;;5043599;28;20025;-72
2022/04/18 09:56:14;;;;;;;5.93;2.95;;;18.60;73.30;;;;;;5042141;27;20040;-72
2022/04/18 09:58:39;;;;;;;6.53;3.38;;;18.70;73.50;;;;;;5042966;28;20035;-72
2022/04/18 10:01:06;;;;;;;3.00;2.67;;;18.70;71.00;;;;;;5038119;27;20387;-72
2022/04/18 10:03:33;;;;;;;3.97;3.45;;;18.70;69.70;;;;;;5040281;28;20214;-72
2022/04/18 10:06:00;;;;;;;3.55;3.25;;;19.00;70.90;;;;;;5049427;28;20025;-72
2022/04/18 10:08:27;;;;;;;6.50;3.30;;;19.00;73.30;;;;;;5040722;28;20028;-72
2022/04/18 10:10:55;;;;;;;5.50;3.15;;;19.20;71.30;;;;;;5041388;28;20161;-73
2022/04/18 10:13:21;;;;;;;4.40;3.30;;;19.10;73.40;;;;;;5045528;28;20025;-72
2022/04/18 10:15:50;;;;;;;5.40;3.00;;;19.20;70.50;;;;;;5040760;28;20133;-72
2022/04/18 10:18:16;;;;;;;5.28;3.13;;;19.20;67.60;;;;;;5045760;28;20495;-72
2022/04/18 10:21:12;;;;;;;3.47;3.13;;;19.20;69.20;;;;;;5038256;27;20385;-72
2022/04/18 10:24:06;;;;;;;3.00;2.60;;;19.30;71.70;;;;;;5042983;28;20034;-72
2022/04/18 10:27:16;;;;;;;3.72;3.40;;;19.40;68.60;;;;;;5034915;28;20446;-73
2022/04/18 10:29:50;;;;;;;5.03;3.05;;;19.50;71.50;;;;;;5046280;28;20033;-72
2022/04/18 10:32:21;;;;;;;6.78;3.67;;;19.70;70.50;;;;;;5044406;28;20422;-73
2022/04/18 10:34:51;;;;;;;5.10;3.22;;;19.20;64.60;;;;;;5039795;28;20114;-73
2022/04/18 10:37:22;;;;;;;3.75;2.70;;;19.20;66.80;;;;;;5038516;28;20026;-72
2022/04/18 10:39:57;;;;;;;4.97;3.00;;;19.50;69.40;;;;;;5039451;28;20033;-72
2022/04/18 10:42:32;;;;;;;5.57;2.90;;;19.70;68.00;;;;;;5043158;28;20031;-71
2022/04/18 10:45:10;;;;;;;5.78;3.35;;;19.70;68.10;;;;;;5042002;28;20032;-72
2022/04/18 10:48:00;;;;;;;3.78;3.00;;;19.70;66.50;;;;;;5033759;28;20021;-72
2022/04/18 10:50:39;;;;;;;4.38;3.65;;;19.90;66.20;;;;;;5039155;28;20066;-72
2022/04/18 10:53:25;;;;;;;6.55;3.08;;;19.90;67.70;;;;;;5039303;28;20075;-72
2022/04/18 10:55:53;;;;;;;4.70;3.17;;;20.00;65.90;;;;;;5032237;28;20033;-72
2022/04/18 10:58:35;;;;;;;4.55;2.95;;;20.10;68.40;;;;;;5035584;28;20034;-72
2022/04/18 11:01:03;;;;;;;5.60;3.47;;;20.20;70.00;;;;;;5039780;28;20381;-73
2022/04/18 11:03:35;;;;;;;7.50;3.65;;;20.30;64.90;;;;;;5036964;28;20041;-74
2022/04/18 11:06:02;;;;;;;5.27;3.37;;;20.30;64.20;;;;;;5031921;28;20533;-73
2022/04/18 11:08:29;;;;;;;5.63;3.28;;;20.30;64.10;;;;;;5041602;28;20426;-74
2022/04/18 11:11:17;;;;;;;5.43;3.35;;;20.50;67.10;;;;;;5034999;27;20029;-74
2022/04/18 11:13:43;;;;;;;5.50;3.60;;;20.60;61.00;;;;;;5042092;28;20034;-73
2022/04/18 11:16:27;;;;;;;4.18;3.40;;;20.70;63.00;;;;;;5033944;28;20026;-73
2022/04/18 11:19:09;;;;;;;4.63;3.72;;;20.90;64.40;;;;;;5035949;28;20366;-74
2022/04/18 11:21:56;;;;;;;6.93;3.60;;;21.10;65.60;;;;;;5036133;28;20069;-74
2022/04/18 11:24:46;;;;;;;6.93;3.97;;;20.90;66.40;;;;;;5041829;28;20393;-73
2022/04/18 11:27:14;;;;;;;4.72;3.75;;;21.00;62.80;;;;;;5035846;27;20030;-73
2022/04/18 11:29:42;;;;;;;5.95;4.43;;;21.00;63.00;;;;;;5044679;28;20077;-74
2022/04/18 11:32:08;;;;;;;5.07;3.90;;;20.90;63.60;;;;;;5033946;27;20038;-73
2022/04/18 11:34:35;;;;;;;4.50;3.38;;;21.00;64.80;;;;;;5040745;28;20029;-72
2022/04/18 11:37:04;;;;;;;5.35;3.05;;;21.10;63.90;;;;;;5037662;28;20017;-72
2022/04/18 11:39:44;;;;;;;2.95;2.60;;;21.10;63.20;;;;;;5041825;27;20138;-73
2022/04/18 11:42:23;;;;;;;5.30;2.70;;;20.90;59.60;;;;;;5040349;28;20049;-72
2022/04/18 11:44:50;;;;;;;4.90;2.70;;;21.10;59.00;;;;;;5037988;27;20045;-72
2022/04/18 11:47:23;;;;;;;3.65;3.33;;;21.00;61.10;;;;;;5038853;28;20030;-73
2022/04/18 11:49:58;;;;;;;3.38;3.05;;;21.00;59.10;;;;;;5038436;27;20029;-73
2022/04/18 11:52:32;;;;;;;6.32;3.63;;;21.00;62.30;;;;;;5039286;28;20025;-74
2022/04/18 11:55:15;;;;;;;4.03;3.55;;;21.00;63.70;;;;;;5039971;28;20033;-74
2022/04/18 11:57:42;;;;;;;4.32;3.10;;;21.30;59.90;;;;;;5036461;28;20069;-74
2022/04/18 12:00:11;;;;;;;6.80;3.35;;;21.50;63.70;;;;;;5033673;27;20071;-74
2022/04/18 12:08:10;;;;;;;4.60;4.20;;;21.50;59.20;;;;;;5041750;28;20086;-74
2022/04/18 12:10:40;;;;;;;3.65;3.10;;;21.50;61.00;;;;;;5037882;27;20540;-74
2022/04/18 12:13:12;;;;;;;6.03;3.40;;;21.50;60.70;;;;;;5039147;28;20096;-74
2022/04/18 12:15:38;;;;;;;4.10;3.70;;;21.40;60.00;;;;;;5048467;28;20465;-74
2022/04/18 12:18:15;;;;;;;3.75;3.42;;;21.70;60.80;;;;;;5039264;27;20021;-74
2022/04/18 12:20:49;;;;;;;4.93;3.28;;;21.30;59.50;;;;;;5037647;28;20078;-74
2022/04/18 12:23:33;;;;;;;3.28;2.97;;;21.50;59.40;;;;;;5033476;27;20032;-73
2022/04/18 12:26:01;;;;;;;3.05;2.75;;;21.70;59.50;;;;;;5043685;28;20029;-74
2022/04/18 12:28:29;;;;;;;2.25;2.05;;;21.60;58.80;;;;;;5035616;28;20055;-74
2022/04/18 12:30:56;;;;;;;2.88;2.58;;;22.00;64.10;;;;;;5041756;28;20025;-74
2022/04/18 12:33:26;;;;;;;3.58;2.50;;;22.00;57.20;;;;;;5032735;27;20033;-74
2022/04/18 12:35:53;;;;;;;4.70;2.92;;;22.20;56.50;;;;;;5034511;28;20033;-73
2022/04/18 12:38:28;;;;;;;5.00;2.55;;;22.10;58.10;;;;;;5035297;27;20048;-74
2022/04/18 12:40:56;;;;;;;2.78;2.10;;;22.10;59.00;;;;;;5039230;28;20084;-74
2022/04/18 12:43:30;;;;;;;2.65;2.30;;;22.10;57.00;;;;;;5038716;27;20040;-73
2022/04/18 12:46:06;;;;;;;3.65;2.92;;;22.20;58.90;;;;;;5037585;28;20061;-74
2022/04/18 12:48:33;;;;;;;3.60;2.80;;;22.20;57.70;;;;;;5037199;27;20025;-73
2022/04/18 12:51:01;;;;;;;2.50;2.30;;;22.00;55.60;;;;;;5036139;28;20033;-74
2022/04/18 12:53:47;;;;;;;5.15;1.95;;;22.20;60.30;;;;;;5040742;28;20025;-74
2022/04/18 12:56:20;;;;;;;3.13;2.83;;;22.30;60.00;;;;;;5040752;28;20036;-73
2022/04/18 12:58:47;;;;;;;2.60;2.40;;;22.10;54.40;;;;;;5043605;28;20017;-78
2022/04/18 13:01:34;;;;;;;7.00;2.38;;;22.10;59.40;;;;;;5038565;28;20092;-74
2022/04/18 13:04:02;;;;;;;5.63;2.45;;;22.00;57.50;;;;;;5043250;28;20076;-74
2022/04/18 13:06:34;;;;;;;4.93;2.90;;;21.80;58.20;;;;;;5050582;28;20078;-74
2022/04/18 13:09:02;;;;;;;2.83;2.60;;;21.80;57.10;;;;;;5039333;27;20045;-74
2022/04/18 13:12:01;;;;;;;2.92;2.50;;;21.60;56.60;;;;;;5039446;28;20030;-75
2022/04/18 13:14:27;;;;;;;3.92;2.80;;;21.70;58.60;;;;;;5035524;28;20427;-74
2022/04/18 13:17:05;;;;;;;3.50;3.30;;;21.80;57.90;;;;;;5042981;28;20466;-74
2022/04/18 13:19:31;;;;;;;6.50;2.85;;;22.00;56.80;;;;;;5036504;27;20082;-77